Fort Chaffee, Arkansas
Current Conditions -  °F | °C
As of 10:53 AM on Wednesday 26 Nov 2014 (Local Time) from KFSM Reporting Station
Clear Clear  
Wind Chill: 38°   Ceiling: Unl
Heat Index: 45°   Visibility: 10mi
Dew Point: 31°   Wind: 15mph
Humidity: 58%   Direction: 260°W
Pressure: 30.09"   Gusts: NA
Location:  35.2393°N, 94.1304°W
Report Text: KFSM 261653Z 26013KT 10SM CLR 07/M01 A3009 RMK AO2 SLP190 T00721006
Loading
Personal Weather Stations






























Interactive Weather Map New forecast layout! Learn more

10-Day Weather Forecast

Advertisements
Track Severe Weather on mobile